sensor_id;sensor_type;location;lat;lon;timestamp;P1;durP1;ratioP1;P2;durP2;ratioP2
59649;SDS011;46162;57.568;25.814;2022-09-17T00:01:41;7.00;;;1.10;;
59649;SDS011;46162;57.568;25.814;2022-09-17T00:04:11;3.35;;;0.90;;
59649;SDS011;46162;57.568;25.814;2022-09-17T00:06:39;6.22;;;0.90;;
59649;SDS011;46162;57.568;25.814;2022-09-17T00:09:08;6.45;;;0.95;;
59649;SDS011;46162;57.568;25.814;2022-09-17T00:11:38;3.97;;;0.80;;
59649;SDS011;46162;57.568;25.814;2022-09-17T00:14:09;8.70;;;1.10;;
59649;SDS011;46162;57.568;25.814;2022-09-17T00:16:42;7.40;;;1.30;;
59649;SDS011;46162;57.568;25.814;2022-09-17T00:19:14;7.50;;;1.10;;
59649;SDS011;46162;57.568;25.814;2022-09-17T00:21:44;10.68;;;1.00;;
59649;SDS011;46162;57.568;25.814;2022-09-17T00:24:14;8.60;;;2.17;;
59649;SDS011;46162;57.568;25.814;2022-09-17T00:26:44;3.78;;;0.82;;
59649;SDS011;46162;57.568;25.814;2022-09-17T00:29:13;8.20;;;1.25;;
59649;SDS011;46162;57.568;25.814;2022-09-17T00:31:42;6.63;;;1.00;;
59649;SDS011;46162;57.568;25.814;2022-09-17T00:34:11;4.80;;;0.90;;
59649;SDS011;46162;57.568;25.814;2022-09-17T00:36:41;8.38;;;1.45;;
59649;SDS011;46162;57.568;25.814;2022-09-17T00:39:10;7.95;;;0.88;;
59649;SDS011;46162;57.568;25.814;2022-09-17T00:41:41;4.63;;;0.85;;
59649;SDS011;46162;57.568;25.814;2022-09-17T00:47:21;6.72;;;0.93;;
59649;SDS011;46162;57.568;25.814;2022-09-17T00:49:52;5.05;;;1.15;;
59649;SDS011;46162;57.568;25.814;2022-09-17T00:52:27;4.15;;;1.00;;
59649;SDS011;46162;57.568;25.814;2022-09-17T00:55:03;3.58;;;1.00;;
59649;SDS011;46162;57.568;25.814;2022-09-17T00:57:36;6.90;;;1.02;;
59649;SDS011;46162;57.568;25.814;2022-09-17T01:00:06;5.60;;;0.98;;
59649;SDS011;46162;57.568;25.814;2022-09-17T01:02:35;4.90;;;0.90;;
59649;SDS011;46162;57.568;25.814;2022-09-17T01:05:05;5.75;;;1.35;;
59649;SDS011;46162;57.568;25.814;2022-09-17T01:07:39;4.97;;;1.58;;
59649;SDS011;46162;57.568;25.814;2022-09-17T01:10:19;6.13;;;1.55;;
59649;SDS011;46162;57.568;25.814;2022-09-17T01:13:04;5.95;;;1.30;;
59649;SDS011;46162;57.568;25.814;2022-09-17T01:15:41;6.00;;;1.65;;
59649;SDS011;46162;57.568;25.814;2022-09-17T01:18:22;8.98;;;2.10;;
59649;SDS011;46162;57.568;25.814;2022-09-17T01:21:19;8.32;;;2.38;;
59649;SDS011;46162;57.568;25.814;2022-09-17T01:24:20;7.88;;;2.20;;
59649;SDS011;46162;57.568;25.814;2022-09-17T01:27:22;7.25;;;2.25;;
59649;SDS011;46162;57.568;25.814;2022-09-17T01:30:15;6.80;;;2.20;;
59649;SDS011;46162;57.568;25.814;2022-09-17T01:32:51;10.98;;;2.28;;
59649;SDS011;46162;57.568;25.814;2022-09-17T01:35:28;6.40;;;1.85;;
59649;SDS011;46162;57.568;25.814;2022-09-17T01:38:04;5.35;;;2.00;;
59649;SDS011;46162;57.568;25.814;2022-09-17T01:40:39;9.60;;;2.78;;
59649;SDS011;46162;57.568;25.814;2022-09-17T01:43:14;8.20;;;2.53;;
59649;SDS011;46162;57.568;25.814;2022-09-17T01:45:49;4.78;;;1.90;;
59649;SDS011;46162;57.568;25.814;2022-09-17T01:48:22;8.63;;;2.67;;
59649;SDS011;46162;57.568;25.814;2022-09-17T01:50:54;5.10;;;2.30;;
59649;SDS011;46162;57.568;25.814;2022-09-17T01:53:28;11.60;;;2.58;;
59649;SDS011;46162;57.568;25.814;2022-09-17T01:56:02;10.95;;;2.97;;
59649;SDS011;46162;57.568;25.814;2022-09-17T01:58:33;9.93;;;2.92;;
59649;SDS011;46162;57.568;25.814;2022-09-17T02:01:07;7.20;;;2.42;;
59649;SDS011;46162;57.568;25.814;2022-09-17T02:03:41;7.00;;;2.42;;
59649;SDS011;46162;57.568;25.814;2022-09-17T02:06:15;4.63;;;1.65;;
59649;SDS011;46162;57.568;25.814;2022-09-17T02:08:48;9.07;;;2.30;;
59649;SDS011;46162;57.568;25.814;2022-09-17T02:11:22;6.78;;;2.13;;
59649;SDS011;46162;57.568;25.814;2022-09-17T02:13:51;6.50;;;2.38;;
59649;SDS011;46162;57.568;25.814;2022-09-17T02:16:25;9.05;;;2.35;;
59649;SDS011;46162;57.568;25.814;2022-09-17T02:18:58;8.50;;;2.08;;
59649;SDS011;46162;57.568;25.814;2022-09-17T02:21:35;10.52;;;2.55;;
59649;SDS011;46162;57.568;25.814;2022-09-17T02:24:14;5.85;;;2.53;;
59649;SDS011;46162;57.568;25.814;2022-09-17T02:26:47;6.72;;;2.53;;
59649;SDS011;46162;57.568;25.814;2022-09-17T02:29:23;6.70;;;2.50;;
59649;SDS011;46162;57.568;25.814;2022-09-17T02:31:57;7.70;;;2.80;;
59649;SDS011;46162;57.568;25.814;2022-09-17T02:34:28;10.35;;;3.10;;
59649;SDS011;46162;57.568;25.814;2022-09-17T02:36:57;6.05;;;2.65;;
59649;SDS011;46162;57.568;25.814;2022-09-17T02:39:26;6.93;;;3.10;;
59649;SDS011;46162;57.568;25.814;2022-09-17T02:41:57;8.57;;;2.92;;
59649;SDS011;46162;57.568;25.814;2022-09-17T02:44:36;6.88;;;2.92;;
59649;SDS011;46162;57.568;25.814;2022-09-17T02:47:26;9.77;;;3.40;;
59649;SDS011;46162;57.568;25.814;2022-09-17T02:52:56;11.07;;;3.42;;
59649;SDS011;46162;57.568;25.814;2022-09-17T02:55:35;7.45;;;4.22;;
59649;SDS011;46162;57.568;25.814;2022-09-17T02:58:13;7.53;;;3.28;;
59649;SDS011;46162;57.568;25.814;2022-09-17T03:00:51;9.50;;;3.78;;
59649;SDS011;46162;57.568;25.814;2022-09-17T03:03:22;11.20;;;3.83;;
59649;SDS011;46162;57.568;25.814;2022-09-17T03:05:59;10.32;;;4.35;;
59649;SDS011;46162;57.568;25.814;2022-09-17T03:08:28;8.32;;;3.70;;
59649;SDS011;46162;57.568;25.814;2022-09-17T03:11:00;9.40;;;3.83;;
59649;SDS011;46162;57.568;25.814;2022-09-17T03:13:29;9.32;;;4.68;;
59649;SDS011;46162;57.568;25.814;2022-09-17T03:15:58;10.00;;;3.40;;
59649;SDS011;46162;57.568;25.814;2022-09-17T03:18:27;7.65;;;3.67;;
59649;SDS011;46162;57.568;25.814;2022-09-17T03:20:56;10.52;;;3.65;;
59649;SDS011;46162;57.568;25.814;2022-09-17T03:23:26;9.65;;;3.97;;
59649;SDS011;46162;57.568;25.814;2022-09-17T03:25:55;9.38;;;3.50;;
59649;SDS011;46162;57.568;25.814;2022-09-17T03:28:24;8.25;;;3.45;;
59649;SDS011;46162;57.568;25.814;2022-09-17T03:30:53;7.68;;;3.70;;
59649;SDS011;46162;57.568;25.814;2022-09-17T03:33:23;7.25;;;3.40;;
59649;SDS011;46162;57.568;25.814;2022-09-17T03:35:52;9.23;;;3.30;;
59649;SDS011;46162;57.568;25.814;2022-09-17T03:38:21;6.05;;;3.30;;
59649;SDS011;46162;57.568;25.814;2022-09-17T03:40:59;10.77;;;3.47;;
59649;SDS011;46162;57.568;25.814;2022-09-17T03:43:29;8.40;;;3.10;;
59649;SDS011;46162;57.568;25.814;2022-09-17T03:45:58;6.32;;;3.15;;
59649;SDS011;46162;57.568;25.814;2022-09-17T03:48:27;8.57;;;3.50;;
59649;SDS011;46162;57.568;25.814;2022-09-17T03:50:56;7.88;;;3.65;;
59649;SDS011;46162;57.568;25.814;2022-09-17T03:53:25;7.45;;;3.20;;
59649;SDS011;46162;57.568;25.814;2022-09-17T03:55:56;9.07;;;2.80;;
59649;SDS011;46162;57.568;25.814;2022-09-17T03:58:27;6.20;;;2.88;;
59649;SDS011;46162;57.568;25.814;2022-09-17T04:00:56;7.47;;;3.10;;
59649;SDS011;46162;57.568;25.814;2022-09-17T04:03:25;7.28;;;3.38;;
59649;SDS011;46162;57.568;25.814;2022-09-17T04:05:55;8.90;;;3.20;;
59649;SDS011;46162;57.568;25.814;2022-09-17T04:08:24;6.70;;;3.17;;
59649;SDS011;46162;57.568;25.814;2022-09-17T04:10:54;6.07;;;2.50;;
59649;SDS011;46162;57.568;25.814;2022-09-17T04:13:22;10.23;;;3.17;;
59649;SDS011;46162;57.568;25.814;2022-09-17T04:15:53;8.40;;;2.83;;
59649;SDS011;46162;57.568;25.814;2022-09-17T04:18:22;9.00;;;2.97;;
59649;SDS011;46162;57.568;25.814;2022-09-17T04:20:51;6.95;;;2.70;;
59649;SDS011;46162;57.568;25.814;2022-09-17T04:23:20;8.15;;;3.08;;
59649;SDS011;46162;57.568;25.814;2022-09-17T04:25:49;8.27;;;2.97;;
59649;SDS011;46162;57.568;25.814;2022-09-17T04:28:18;7.40;;;2.70;;
59649;SDS011;46162;57.568;25.814;2022-09-17T04:30:47;8.80;;;2.60;;
59649;SDS011;46162;57.568;25.814;2022-09-17T04:33:17;6.28;;;2.60;;
59649;SDS011;46162;57.568;25.814;2022-09-17T04:35:46;7.40;;;2.67;;
59649;SDS011;46162;57.568;25.814;2022-09-17T04:38:15;6.35;;;2.92;;
59649;SDS011;46162;57.568;25.814;2022-09-17T04:43:15;8.43;;;3.20;;
59649;SDS011;46162;57.568;25.814;2022-09-17T04:45:45;6.35;;;3.28;;
59649;SDS011;46162;57.568;25.814;2022-09-17T04:48:14;9.27;;;3.08;;
59649;SDS011;46162;57.568;25.814;2022-09-17T04:50:44;6.38;;;3.08;;
59649;SDS011;46162;57.568;25.814;2022-09-17T04:53:12;10.23;;;3.67;;
59649;SDS011;46162;57.568;25.814;2022-09-17T04:55:41;8.52;;;3.92;;
59649;SDS011;46162;57.568;25.814;2022-09-17T04:58:10;4.93;;;3.08;;
59649;SDS011;46162;57.568;25.814;2022-09-17T05:00:39;8.07;;;3.60;;
59649;SDS011;46162;57.568;25.814;2022-09-17T05:03:09;11.32;;;3.50;;
59649;SDS011;46162;57.568;25.814;2022-09-17T05:05:37;12.68;;;3.42;;
59649;SDS011;46162;57.568;25.814;2022-09-17T05:08:08;8.73;;;3.92;;
59649;SDS011;46162;57.568;25.814;2022-09-17T05:10:37;8.40;;;3.63;;
59649;SDS011;46162;57.568;25.814;2022-09-17T05:13:06;14.95;;;4.20;;
59649;SDS011;46162;57.568;25.814;2022-09-17T05:15:35;9.93;;;4.30;;
59649;SDS011;46162;57.568;25.814;2022-09-17T05:18:04;15.02;;;4.57;;
59649;SDS011;46162;57.568;25.814;2022-09-17T05:20:33;12.93;;;4.63;;
59649;SDS011;46162;57.568;25.814;2022-09-17T05:23:02;12.00;;;4.82;;
59649;SDS011;46162;57.568;25.814;2022-09-17T05:25:32;14.73;;;4.25;;
59649;SDS011;46162;57.568;25.814;2022-09-17T05:28:01;7.43;;;3.63;;
59649;SDS011;46162;57.568;25.814;2022-09-17T05:30:30;8.48;;;3.83;;
59649;SDS011;46162;57.568;25.814;2022-09-17T05:32:59;8.60;;;3.95;;
59649;SDS011;46162;57.568;25.814;2022-09-17T05:35:29;7.78;;;4.07;;
59649;SDS011;46162;57.568;25.814;2022-09-17T05:40:29;7.05;;;3.42;;
59649;SDS011;46162;57.568;25.814;2022-09-17T05:43:01;6.15;;;3.92;;
59649;SDS011;46162;57.568;25.814;2022-09-17T05:45:33;6.50;;;3.50;;
59649;SDS011;46162;57.568;25.814;2022-09-17T05:48:06;8.55;;;3.70;;
59649;SDS011;46162;57.568;25.814;2022-09-17T05:50:40;9.23;;;3.53;;
59649;SDS011;46162;57.568;25.814;2022-09-17T05:53:10;9.25;;;2.97;;
59649;SDS011;46162;57.568;25.814;2022-09-17T05:55:39;11.35;;;3.80;;
59649;SDS011;46162;57.568;25.814;2022-09-17T05:58:10;7.05;;;3.42;;
59649;SDS011;46162;57.568;25.814;2022-09-17T06:00:40;8.95;;;3.33;;
59649;SDS011;46162;57.568;25.814;2022-09-17T06:03:10;7.72;;;3.75;;
59649;SDS011;46162;57.568;25.814;2022-09-17T06:05:40;8.45;;;3.72;;
59649;SDS011;46162;57.568;25.814;2022-09-17T06:08:09;6.72;;;3.35;;
59649;SDS011;46162;57.568;25.814;2022-09-17T06:10:38;4.65;;;3.13;;
59649;SDS011;46162;57.568;25.814;2022-09-17T06:13:07;8.05;;;3.35;;
59649;SDS011;46162;57.568;25.814;2022-09-17T06:15:38;10.75;;;3.05;;
59649;SDS011;46162;57.568;25.814;2022-09-17T06:18:07;10.70;;;2.97;;
59649;SDS011;46162;57.568;25.814;2022-09-17T06:20:36;5.75;;;2.53;;
59649;SDS011;46162;57.568;25.814;2022-09-17T06:23:04;6.50;;;2.47;;
59649;SDS011;46162;57.568;25.814;2022-09-17T06:25:39;9.80;;;2.72;;
59649;SDS011;46162;57.568;25.814;2022-09-17T06:28:08;6.28;;;3.13;;
59649;SDS011;46162;57.568;25.814;2022-09-17T06:30:38;5.80;;;2.72;;
59649;SDS011;46162;57.568;25.814;2022-09-17T06:33:08;5.03;;;2.30;;
59649;SDS011;46162;57.568;25.814;2022-09-17T06:35:37;6.68;;;2.90;;
59649;SDS011;46162;57.568;25.814;2022-09-17T06:38:06;6.40;;;2.72;;
59649;SDS011;46162;57.568;25.814;2022-09-17T06:40:34;7.53;;;2.83;;
59649;SDS011;46162;57.568;25.814;2022-09-17T06:43:03;6.03;;;3.10;;
59649;SDS011;46162;57.568;25.814;2022-09-17T06:45:33;5.97;;;2.83;;
59649;SDS011;46162;57.568;25.814;2022-09-17T06:48:04;7.15;;;3.42;;
59649;SDS011;46162;57.568;25.814;2022-09-17T06:50:33;9.70;;;3.47;;
59649;SDS011;46162;57.568;25.814;2022-09-17T06:53:08;10.75;;;3.42;;
59649;SDS011;46162;57.568;25.814;2022-09-17T06:55:37;8.55;;;3.78;;
59649;SDS011;46162;57.568;25.814;2022-09-17T06:58:06;9.40;;;3.50;;
59649;SDS011;46162;57.568;25.814;2022-09-17T07:00:35;7.93;;;3.72;;
59649;SDS011;46162;57.568;25.814;2022-09-17T07:03:05;6.18;;;3.65;;
59649;SDS011;46162;57.568;25.814;2022-09-17T07:05:36;6.72;;;4.35;;
59649;SDS011;46162;57.568;25.814;2022-09-17T07:08:05;8.25;;;3.80;;
59649;SDS011;46162;57.568;25.814;2022-09-17T07:10:34;9.25;;;4.65;;
59649;SDS011;46162;57.568;25.814;2022-09-17T07:13:03;10.75;;;3.78;;
59649;SDS011;46162;57.568;25.814;2022-09-17T07:15:32;7.22;;;4.05;;
59649;SDS011;46162;57.568;25.814;2022-09-17T07:18:07;10.07;;;5.18;;
59649;SDS011;46162;57.568;25.814;2022-09-17T07:20:37;5.88;;;3.88;;
59649;SDS011;46162;57.568;25.814;2022-09-17T07:23:06;9.32;;;4.25;;
59649;SDS011;46162;57.568;25.814;2022-09-17T07:25:34;5.88;;;3.85;;
59649;SDS011;46162;57.568;25.814;2022-09-17T07:28:03;7.00;;;3.70;;
59649;SDS011;46162;57.568;25.814;2022-09-17T07:30:33;6.90;;;3.70;;
59649;SDS011;46162;57.568;25.814;2022-09-17T07:33:02;9.63;;;3.88;;
59649;SDS011;46162;57.568;25.814;2022-09-17T07:35:32;6.45;;;3.67;;
59649;SDS011;46162;57.568;25.814;2022-09-17T07:38:01;7.25;;;3.55;;
59649;SDS011;46162;57.568;25.814;2022-09-17T07:40:30;6.15;;;3.40;;
59649;SDS011;46162;57.568;25.814;2022-09-17T07:42:58;8.23;;;4.25;;
59649;SDS011;46162;57.568;25.814;2022-09-17T07:45:28;6.63;;;3.80;;
59649;SDS011;46162;57.568;25.814;2022-09-17T07:47:56;7.65;;;3.58;;
59649;SDS011;46162;57.568;25.814;2022-09-17T07:50:26;6.22;;;3.05;;
59649;SDS011;46162;57.568;25.814;2022-09-17T07:52:56;5.43;;;3.28;;
59649;SDS011;46162;57.568;25.814;2022-09-17T07:55:25;7.55;;;3.17;;
59649;SDS011;46162;57.568;25.814;2022-09-17T07:57:54;7.65;;;3.53;;
59649;SDS011;46162;57.568;25.814;2022-09-17T08:00:23;6.82;;;3.28;;
59649;SDS011;46162;57.568;25.814;2022-09-17T08:02:55;9.05;;;3.33;;
59649;SDS011;46162;57.568;25.814;2022-09-17T08:05:24;5.25;;;2.40;;
59649;SDS011;46162;57.568;25.814;2022-09-17T08:07:54;5.82;;;2.83;;
59649;SDS011;46162;57.568;25.814;2022-09-17T08:10:24;9.32;;;2.38;;
59649;SDS011;46162;57.568;25.814;2022-09-17T08:12:54;7.40;;;2.75;;
59649;SDS011;46162;57.568;25.814;2022-09-17T08:15:24;7.90;;;2.78;;
59649;SDS011;46162;57.568;25.814;2022-09-17T08:17:53;8.23;;;3.20;;
59649;SDS011;46162;57.568;25.814;2022-09-17T08:20:22;5.50;;;2.65;;
59649;SDS011;46162;57.568;25.814;2022-09-17T08:22:59;5.88;;;2.92;;
59649;SDS011;46162;57.568;25.814;2022-09-17T08:25:28;8.27;;;3.00;;
59649;SDS011;46162;57.568;25.814;2022-09-17T08:27:57;5.65;;;2.47;;
59649;SDS011;46162;57.568;25.814;2022-09-17T08:30:26;7.72;;;2.55;;
59649;SDS011;46162;57.568;25.814;2022-09-17T08:32:54;7.00;;;2.80;;
59649;SDS011;46162;57.568;25.814;2022-09-17T08:35:23;5.63;;;2.53;;
59649;SDS011;46162;57.568;25.814;2022-09-17T08:37:54;6.27;;;2.80;;
59649;SDS011;46162;57.568;25.814;2022-09-17T08:40:24;6.85;;;2.45;;
59649;SDS011;46162;57.568;25.814;2022-09-17T08:45:26;6.13;;;2.45;;
59649;SDS011;46162;57.568;25.814;2022-09-17T08:47:59;9.13;;;2.88;;
59649;SDS011;46162;57.568;25.814;2022-09-17T08:50:31;7.40;;;2.65;;
59649;SDS011;46162;57.568;25.814;2022-09-17T08:53:28;5.68;;;2.10;;
59649;SDS011;46162;57.568;25.814;2022-09-17T08:58:45;5.68;;;2.10;;
59649;SDS011;46162;57.568;25.814;2022-09-17T09:01:36;6.00;;;1.92;;
59649;SDS011;46162;57.568;25.814;2022-09-17T09:04:21;6.40;;;2.08;;
59649;SDS011;46162;57.568;25.814;2022-09-17T09:07:03;5.28;;;1.73;;
59649;SDS011;46162;57.568;25.814;2022-09-17T09:09:36;5.03;;;1.23;;
59649;SDS011;46162;57.568;25.814;2022-09-17T09:12:12;5.68;;;1.60;;
59649;SDS011;46162;57.568;25.814;2022-09-17T09:14:47;5.95;;;1.20;;
59649;SDS011;46162;57.568;25.814;2022-09-17T09:17:21;6.03;;;1.67;;
59649;SDS011;46162;57.568;25.814;2022-09-17T09:19:54;7.80;;;1.15;;
59649;SDS011;46162;57.568;25.814;2022-09-17T09:22:36;3.88;;;1.00;;
59649;SDS011;46162;57.568;25.814;2022-09-17T09:25:17;5.28;;;1.52;;
59649;SDS011;46162;57.568;25.814;2022-09-17T09:27:58;5.78;;;1.02;;
59649;SDS011;46162;57.568;25.814;2022-09-17T09:30:37;7.95;;;1.35;;
59649;SDS011;46162;57.568;25.814;2022-09-17T09:33:17;5.43;;;0.88;;
59649;SDS011;46162;57.568;25.814;2022-09-17T09:35:52;5.22;;;0.90;;
59649;SDS011;46162;57.568;25.814;2022-09-17T09:38:23;4.97;;;1.10;;
59649;SDS011;46162;57.568;25.814;2022-09-17T09:41:02;4.53;;;0.80;;
59649;SDS011;46162;57.568;25.814;2022-09-17T09:43:40;3.70;;;0.60;;
59649;SDS011;46162;57.568;25.814;2022-09-17T09:49:32;2.92;;;0.80;;
59649;SDS011;46162;57.568;25.814;2022-09-17T09:52:13;6.28;;;0.70;;
59649;SDS011;46162;57.568;25.814;2022-09-17T09:54:54;2.55;;;0.43;;
59649;SDS011;46162;57.568;25.814;2022-09-17T09:57:34;5.30;;;0.55;;
59649;SDS011;46162;57.568;25.814;2022-09-17T10:00:25;2.90;;;0.40;;
59649;SDS011;46162;57.568;25.814;2022-09-17T10:02:58;5.68;;;0.75;;
59649;SDS011;46162;57.568;25.814;2022-09-17T10:05:34;3.33;;;0.70;;
59649;SDS011;46162;57.568;25.814;2022-09-17T10:08:11;4.43;;;0.85;;
59649;SDS011;46162;57.568;25.814;2022-09-17T10:10:52;5.72;;;0.93;;
59649;SDS011;46162;57.568;25.814;2022-09-17T10:13:22;3.70;;;0.88;;
59649;SDS011;46162;57.568;25.814;2022-09-17T10:15:53;3.53;;;1.02;;
59649;SDS011;46162;57.568;25.814;2022-09-17T10:18:23;7.07;;;1.15;;
59649;SDS011;46162;57.568;25.814;2022-09-17T10:20:54;6.35;;;1.13;;
59649;SDS011;46162;57.568;25.814;2022-09-17T10:23:27;6.32;;;1.25;;
59649;SDS011;46162;57.568;25.814;2022-09-17T10:25:57;4.95;;;1.02;;
59649;SDS011;46162;57.568;25.814;2022-09-17T10:28:30;5.22;;;0.75;;
59649;SDS011;46162;57.568;25.814;2022-09-17T10:31:04;6.90;;;0.80;;
59649;SDS011;46162;57.568;25.814;2022-09-17T10:33:38;4.30;;;0.60;;
59649;SDS011;46162;57.568;25.814;2022-09-17T10:36:33;5.57;;;0.98;;
59649;SDS011;46162;57.568;25.814;2022-09-17T10:39:27;5.88;;;0.55;;
59649;SDS011;46162;57.568;25.814;2022-09-17T10:42:02;4.38;;;0.55;;
59649;SDS011;46162;57.568;25.814;2022-09-17T10:44:33;7.03;;;0.63;;
59649;SDS011;46162;57.568;25.814;2022-09-17T10:47:20;2.03;;;0.40;;
59649;SDS011;46162;57.568;25.814;2022-09-17T10:49:52;5.20;;;0.60;;
59649;SDS011;46162;57.568;25.814;2022-09-17T10:52:26;5.07;;;0.45;;
59649;SDS011;46162;57.568;25.814;2022-09-17T10:55:01;2.90;;;0.47;;
59649;SDS011;46162;57.568;25.814;2022-09-17T10:57:51;5.68;;;1.75;;
59649;SDS011;46162;57.568;25.814;2022-09-17T11:00:26;2.85;;;0.55;;
59649;SDS011;46162;57.568;25.814;2022-09-17T11:06:25;5.40;;;0.52;;
59649;SDS011;46162;57.568;25.814;2022-09-17T11:09:08;4.88;;;0.93;;
59649;SDS011;46162;57.568;25.814;2022-09-17T11:11:52;3.10;;;0.70;;
59649;SDS011;46162;57.568;25.814;2022-09-17T11:14:34;2.45;;;0.30;;
59649;SDS011;46162;57.568;25.814;2022-09-17T11:17:18;4.80;;;0.40;;
59649;SDS011;46162;57.568;25.814;2022-09-17T11:20:04;2.88;;;0.35;;
59649;SDS011;46162;57.568;25.814;2022-09-17T11:22:44;4.50;;;0.57;;
59649;SDS011;46162;57.568;25.814;2022-09-17T11:25:38;3.50;;;0.35;;
59649;SDS011;46162;57.568;25.814;2022-09-17T11:28:17;5.20;;;0.45;;
59649;SDS011;46162;57.568;25.814;2022-09-17T11:31:00;4.72;;;0.40;;
59649;SDS011;46162;57.568;25.814;2022-09-17T11:33:41;3.10;;;0.22;;
59649;SDS011;46162;57.568;25.814;2022-09-17T11:36:20;2.80;;;0.30;;
59649;SDS011;46162;57.568;25.814;2022-09-17T11:38:54;6.45;;;0.57;;
59649;SDS011;46162;57.568;25.814;2022-09-17T11:41:25;2.60;;;0.22;;
59649;SDS011;46162;57.568;25.814;2022-09-17T11:44:01;2.70;;;0.43;;
59649;SDS011;46162;57.568;25.814;2022-09-17T11:46:37;2.72;;;0.30;;
59649;SDS011;46162;57.568;25.814;2022-09-17T11:49:12;2.92;;;0.20;;
59649;SDS011;46162;57.568;25.814;2022-09-17T11:51:53;2.90;;;0.40;;
59649;SDS011;46162;57.568;25.814;2022-09-17T11:54:24;2.63;;;0.20;;
59649;SDS011;46162;57.568;25.814;2022-09-17T11:57:00;1.67;;;0.20;;
59649;SDS011;46162;57.568;25.814;2022-09-17T11:59:37;2.22;;;0.20;;
59649;SDS011;46162;57.568;25.814;2022-09-17T12:02:15;2.08;;;0.20;;
59649;SDS011;46162;57.568;25.814;2022-09-17T12:04:52;3.67;;;0.30;;
59649;SDS011;46162;57.568;25.814;2022-09-17T12:07:35;1.33;;;0.20;;
59649;SDS011;46162;57.568;25.814;2022-09-17T12:10:17;1.38;;;0.17;;
59649;SDS011;46162;57.568;25.814;2022-09-17T12:12:56;3.80;;;0.20;;
59649;SDS011;46162;57.568;25.814;2022-09-17T12:15:31;2.25;;;0.22;;
59649;SDS011;46162;57.568;25.814;2022-09-17T12:18:06;2.17;;;0.20;;
59649;SDS011;46162;57.568;25.814;2022-09-17T12:20:58;2.22;;;0.20;;
59649;SDS011;46162;57.568;25.814;2022-09-17T12:23:32;2.45;;;0.28;;
59649;SDS011;46162;57.568;25.814;2022-09-17T12:26:13;8.35;;;0.30;;
59649;SDS011;46162;57.568;25.814;2022-09-17T12:28:50;4.93;;;0.30;;
59649;SDS011;46162;57.568;25.814;2022-09-17T12:31:31;3.30;;;0.20;;
59649;SDS011;46162;57.568;25.814;2022-09-17T12:34:14;2.10;;;0.32;;
59649;SDS011;46162;57.568;25.814;2022-09-17T12:36:56;1.95;;;0.20;;
59649;SDS011;46162;57.568;25.814;2022-09-17T12:39:57;4.03;;;0.25;;
59649;SDS011;46162;57.568;25.814;2022-09-17T12:42:42;4.10;;;0.30;;
59649;SDS011;46162;57.568;25.814;2022-09-17T12:45:28;2.92;;;0.20;;
59649;SDS011;46162;57.568;25.814;2022-09-17T12:51:24;3.20;;;0.20;;
59649;SDS011;46162;57.568;25.814;2022-09-17T12:54:09;2.03;;;0.20;;
59649;SDS011;46162;57.568;25.814;2022-09-17T12:56:54;1.85;;;0.10;;
59649;SDS011;46162;57.568;25.814;2022-09-17T12:59:29;2.15;;;0.25;;
59649;SDS011;46162;57.568;25.814;2022-09-17T13:02:02;3.08;;;0.10;;
59649;SDS011;46162;57.568;25.814;2022-09-17T13:04:59;3.33;;;0.20;;
59649;SDS011;46162;57.568;25.814;2022-09-17T13:08:05;1.75;;;0.20;;
59649;SDS011;46162;57.568;25.814;2022-09-17T13:11:04;1.48;;;0.10;;
59649;SDS011;46162;57.568;25.814;2022-09-17T13:13:52;2.03;;;0.20;;
59649;SDS011;46162;57.568;25.814;2022-09-17T13:16:26;2.50;;;0.30;;
59649;SDS011;46162;57.568;25.814;2022-09-17T13:19:04;2.95;;;0.30;;
59649;SDS011;46162;57.568;25.814;2022-09-17T13:21:51;2.00;;;0.28;;
59649;SDS011;46162;57.568;25.814;2022-09-17T13:24:22;3.63;;;0.30;;
59649;SDS011;46162;57.568;25.814;2022-09-17T13:26:55;2.28;;;0.30;;
59649;SDS011;46162;57.568;25.814;2022-09-17T13:32:43;5.10;;;0.35;;
59649;SDS011;46162;57.568;25.814;2022-09-17T13:38:17;3.88;;;0.20;;
59649;SDS011;46162;57.568;25.814;2022-09-17T13:40:50;4.32;;;0.20;;
59649;SDS011;46162;57.568;25.814;2022-09-17T13:43:20;2.47;;;0.20;;
59649;SDS011;46162;57.568;25.814;2022-09-17T13:46:12;1.65;;;0.17;;
59649;SDS011;46162;57.568;25.814;2022-09-17T13:48:48;3.53;;;0.17;;
59649;SDS011;46162;57.568;25.814;2022-09-17T13:54:34;4.05;;;0.20;;
59649;SDS011;46162;57.568;25.814;2022-09-17T13:57:09;1.95;;;0.10;;
59649;SDS011;46162;57.568;25.814;2022-09-17T13:59:51;3.55;;;0.10;;
59649;SDS011;46162;57.568;25.814;2022-09-17T14:02:30;3.00;;;0.30;;
59649;SDS011;46162;57.568;25.814;2022-09-17T14:08:10;9.48;;;0.30;;
59649;SDS011;46162;57.568;25.814;2022-09-17T14:11:34;1.08;;;0.10;;
59649;SDS011;46162;57.568;25.814;2022-09-17T14:17:16;3.30;;;0.20;;
59649;SDS011;46162;57.568;25.814;2022-09-17T14:20:25;1.65;;;0.22;;
59649;SDS011;46162;57.568;25.814;2022-09-17T14:22:55;3.53;;;0.20;;
59649;SDS011;46162;57.568;25.814;2022-09-17T14:25:26;2.25;;;0.20;;
59649;SDS011;46162;57.568;25.814;2022-09-17T14:28:04;2.25;;;0.20;;
59649;SDS011;46162;57.568;25.814;2022-09-17T14:30:41;3.17;;;0.20;;
59649;SDS011;46162;57.568;25.814;2022-09-17T14:33:12;2.33;;;0.20;;
59649;SDS011;46162;57.568;25.814;2022-09-17T14:35:46;5.85;;;0.30;;
59649;SDS011;46162;57.568;25.814;2022-09-17T14:38:18;2.55;;;0.20;;
59649;SDS011;46162;57.568;25.814;2022-09-17T14:40:52;2.63;;;0.10;;
59649;SDS011;46162;57.568;25.814;2022-09-17T14:43:30;1.73;;;0.10;;
59649;SDS011;46162;57.568;25.814;2022-09-17T14:46:08;3.77;;;0.33;;
59649;SDS011;46162;57.568;25.814;2022-09-17T14:48:41;2.50;;;0.20;;
59649;SDS011;46162;57.568;25.814;2022-09-17T14:51:12;4.03;;;0.30;;
59649;SDS011;46162;57.568;25.814;2022-09-17T14:56:40;1.92;;;0.10;;
59649;SDS011;46162;57.568;25.814;2022-09-17T14:59:18;1.80;;;0.10;;
59649;SDS011;46162;57.568;25.814;2022-09-17T15:01:51;2.05;;;0.10;;
59649;SDS011;46162;57.568;25.814;2022-09-17T15:04:21;5.32;;;0.17;;
59649;SDS011;46162;57.568;25.814;2022-09-17T15:07:05;2.25;;;0.10;;
59649;SDS011;46162;57.568;25.814;2022-09-17T15:09:35;2.65;;;0.10;;
59649;SDS011;46162;57.568;25.814;2022-09-17T15:12:04;6.30;;;0.17;;
59649;SDS011;46162;57.568;25.814;2022-09-17T15:14:35;2.60;;;0.10;;
59649;SDS011;46162;57.568;25.814;2022-09-17T15:17:06;6.10;;;0.20;;
59649;SDS011;46162;57.568;25.814;2022-09-17T15:19:43;4.47;;;0.20;;
59649;SDS011;46162;57.568;25.814;2022-09-17T15:22:19;4.43;;;0.15;;
59649;SDS011;46162;57.568;25.814;2022-09-17T15:24:51;4.35;;;0.10;;
59649;SDS011;46162;57.568;25.814;2022-09-17T15:27:25;7.40;;;0.35;;
59649;SDS011;46162;57.568;25.814;2022-09-17T15:29:58;4.13;;;0.13;;
59649;SDS011;46162;57.568;25.814;2022-09-17T15:32:29;5.10;;;0.30;;
59649;SDS011;46162;57.568;25.814;2022-09-17T15:35:19;5.13;;;0.30;;
59649;SDS011;46162;57.568;25.814;2022-09-17T15:37:52;4.07;;;0.20;;
59649;SDS011;46162;57.568;25.814;2022-09-17T15:40:42;2.75;;;0.20;;
59649;SDS011;46162;57.568;25.814;2022-09-17T15:43:14;5.38;;;0.13;;
59649;SDS011;46162;57.568;25.814;2022-09-17T15:45:45;5.20;;;0.20;;
59649;SDS011;46162;57.568;25.814;2022-09-17T15:48:22;3.15;;;0.32;;
59649;SDS011;46162;57.568;25.814;2022-09-17T15:51:03;5.35;;;0.28;;
59649;SDS011;46162;57.568;25.814;2022-09-17T15:56:04;7.53;;;0.30;;
59649;SDS011;46162;57.568;25.814;2022-09-17T15:58:48;3.70;;;0.40;;
59649;SDS011;46162;57.568;25.814;2022-09-17T16:01:48;2.25;;;0.10;;
59649;SDS011;46162;57.568;25.814;2022-09-17T16:04:20;3.10;;;0.20;;